Crooked Lake, Minnesota
Current Conditions -  °F | °C
As of 4:16 PM on Tuesday 25 Nov 2014 (Local Time) from KXVG Reporting Station
Overcast Overcast  
Wind Chill: 11°   Ceiling: 1800
Heat Index: 19°   Visibility: 10mi
Dew Point:   Wind: 6mph
Humidity: 63%   Direction: 170°S
Pressure: 29.95"   Gusts: NA
Location:  46.8459°N, 93.8976°W
Report Text: KXVG 252216Z AUTO 17005KT 10SM OVC018 M07/M13 A2995 RMK AO2
Loading
Personal Weather Stations






























Interactive Weather Map New forecast layout! Learn more

10-Day Weather Forecast

Advertisements
Track Severe Weather on mobile